sensor_id;sensor_type;location;lat;lon;timestamp;P1;durP1;ratioP1;P2;durP2;ratioP2
44987;SDS011;35735;52.226;21.254;2023-08-24T00:03:09;6.18;;;3.97;;
44987;SDS011;35735;52.226;21.254;2023-08-24T00:08:09;5.85;;;3.92;;
44987;SDS011;35735;52.226;21.254;2023-08-24T00:13:10;7.22;;;3.75;;
44987;SDS011;35735;52.226;21.254;2023-08-24T00:18:11;6.40;;;4.07;;
44987;SDS011;35735;52.226;21.254;2023-08-24T00:23:11;8.00;;;4.32;;
44987;SDS011;35735;52.226;21.254;2023-08-24T00:28:12;6.68;;;4.25;;
44987;SDS011;35735;52.226;21.254;2023-08-24T00:33:13;6.32;;;3.80;;
44987;SDS011;35735;52.226;21.254;2023-08-24T00:38:16;6.90;;;3.95;;
44987;SDS011;35735;52.226;21.254;2023-08-24T00:43:16;5.68;;;3.92;;
44987;SDS011;35735;52.226;21.254;2023-08-24T00:48:17;5.55;;;3.97;;
44987;SDS011;35735;52.226;21.254;2023-08-24T00:53:19;5.20;;;4.22;;
44987;SDS011;35735;52.226;21.254;2023-08-24T00:58:20;8.52;;;4.30;;
44987;SDS011;35735;52.226;21.254;2023-08-24T01:03:22;7.35;;;4.22;;
44987;SDS011;35735;52.226;21.254;2023-08-24T01:08:23;7.75;;;4.10;;
44987;SDS011;35735;52.226;21.254;2023-08-24T01:13:29;5.75;;;3.97;;
44987;SDS011;35735;52.226;21.254;2023-08-24T01:18:39;11.73;;;4.32;;
44987;SDS011;35735;52.226;21.254;2023-08-24T01:23:57;8.18;;;4.47;;
44987;SDS011;35735;52.226;21.254;2023-08-24T01:29:17;5.72;;;3.92;;
44987;SDS011;35735;52.226;21.254;2023-08-24T01:34:19;6.40;;;4.28;;
44987;SDS011;35735;52.226;21.254;2023-08-24T01:44:32;5.15;;;4.10;;
44987;SDS011;35735;52.226;21.254;2023-08-24T01:49:38;4.70;;;3.92;;
44987;SDS011;35735;52.226;21.254;2023-08-24T01:54:40;7.82;;;3.80;;
44987;SDS011;35735;52.226;21.254;2023-08-24T01:59:41;5.80;;;3.95;;
44987;SDS011;35735;52.226;21.254;2023-08-24T02:04:42;4.87;;;3.83;;
44987;SDS011;35735;52.226;21.254;2023-08-24T02:09:42;6.43;;;4.37;;
44987;SDS011;35735;52.226;21.254;2023-08-24T02:14:43;6.55;;;3.80;;
44987;SDS011;35735;52.226;21.254;2023-08-24T02:19:44;9.10;;;4.00;;
44987;SDS011;35735;52.226;21.254;2023-08-24T02:24:44;5.62;;;4.22;;
44987;SDS011;35735;52.226;21.254;2023-08-24T02:29:45;4.72;;;4.18;;
44987;SDS011;35735;52.226;21.254;2023-08-24T02:34:45;6.03;;;4.07;;
44987;SDS011;35735;52.226;21.254;2023-08-24T02:39:46;5.90;;;4.25;;
44987;SDS011;35735;52.226;21.254;2023-08-24T02:44:47;6.12;;;4.30;;
44987;SDS011;35735;52.226;21.254;2023-08-24T02:49:47;6.10;;;4.22;;
44987;SDS011;35735;52.226;21.254;2023-08-24T02:54:48;5.75;;;4.37;;
44987;SDS011;35735;52.226;21.254;2023-08-24T02:59:48;5.97;;;4.30;;
44987;SDS011;35735;52.226;21.254;2023-08-24T03:04:49;6.12;;;4.10;;
44987;SDS011;35735;52.226;21.254;2023-08-24T03:09:50;5.25;;;4.50;;
44987;SDS011;35735;52.226;21.254;2023-08-24T03:14:51;8.05;;;4.30;;
44987;SDS011;35735;52.226;21.254;2023-08-24T03:19:52;46.72;;;6.85;;
44987;SDS011;35735;52.226;21.254;2023-08-24T03:24:52;39.35;;;6.97;;
44987;SDS011;35735;52.226;21.254;2023-08-24T03:29:53;9.10;;;4.75;;
44987;SDS011;35735;52.226;21.254;2023-08-24T03:34:58;7.45;;;4.50;;
44987;SDS011;35735;52.226;21.254;2023-08-24T03:40:01;7.25;;;4.75;;
44987;SDS011;35735;52.226;21.254;2023-08-24T03:45:01;7.60;;;5.18;;
44987;SDS011;35735;52.226;21.254;2023-08-24T03:50:03;8.65;;;5.00;;
44987;SDS011;35735;52.226;21.254;2023-08-24T03:55:04;11.35;;;5.07;;
44987;SDS011;35735;52.226;21.254;2023-08-24T04:00:06;15.00;;;5.35;;
44987;SDS011;35735;52.226;21.254;2023-08-24T04:05:07;13.75;;;5.45;;
44987;SDS011;35735;52.226;21.254;2023-08-24T04:10:08;20.75;;;5.70;;
44987;SDS011;35735;52.226;21.254;2023-08-24T04:15:09;16.40;;;5.30;;
44987;SDS011;35735;52.226;21.254;2023-08-24T04:20:10;8.82;;;5.30;;
44987;SDS011;35735;52.226;21.254;2023-08-24T04:25:11;9.75;;;4.70;;
44987;SDS011;35735;52.226;21.254;2023-08-24T04:30:12;14.85;;;5.93;;
44987;SDS011;35735;52.226;21.254;2023-08-24T04:35:12;18.58;;;5.75;;
44987;SDS011;35735;52.226;21.254;2023-08-24T04:40:13;14.30;;;5.43;;
44987;SDS011;35735;52.226;21.254;2023-08-24T04:45:13;11.12;;;5.55;;
44987;SDS011;35735;52.226;21.254;2023-08-24T04:50:14;14.18;;;5.70;;
44987;SDS011;35735;52.226;21.254;2023-08-24T04:55:14;33.80;;;7.03;;
44987;SDS011;35735;52.226;21.254;2023-08-24T05:00:15;38.30;;;6.50;;
44987;SDS011;35735;52.226;21.254;2023-08-24T05:05:16;22.45;;;6.07;;
44987;SDS011;35735;52.226;21.254;2023-08-24T05:10:17;13.30;;;5.43;;
44987;SDS011;35735;52.226;21.254;2023-08-24T05:15:17;8.88;;;4.15;;
44987;SDS011;35735;52.226;21.254;2023-08-24T05:20:18;7.28;;;4.03;;
44987;SDS011;35735;52.226;21.254;2023-08-24T05:25:19;9.77;;;4.28;;
44987;SDS011;35735;52.226;21.254;2023-08-24T05:30:19;8.40;;;4.30;;
44987;SDS011;35735;52.226;21.254;2023-08-24T05:35:20;13.52;;;4.97;;
44987;SDS011;35735;52.226;21.254;2023-08-24T05:40:20;13.10;;;5.15;;
44987;SDS011;35735;52.226;21.254;2023-08-24T05:45:21;9.50;;;7.40;;
44987;SDS011;35735;52.226;21.254;2023-08-24T05:50:21;7.35;;;4.43;;
44987;SDS011;35735;52.226;21.254;2023-08-24T05:55:22;6.70;;;4.25;;
44987;SDS011;35735;52.226;21.254;2023-08-24T06:00:23;5.37;;;3.83;;
44987;SDS011;35735;52.226;21.254;2023-08-24T06:05:23;8.85;;;4.40;;
44987;SDS011;35735;52.226;21.254;2023-08-24T06:10:24;27.40;;;15.82;;
44987;SDS011;35735;52.226;21.254;2023-08-24T06:15:24;12.30;;;10.30;;
44987;SDS011;35735;52.226;21.254;2023-08-24T06:20:25;11.00;;;5.20;;
44987;SDS011;35735;52.226;21.254;2023-08-24T06:25:25;6.90;;;4.00;;
44987;SDS011;35735;52.226;21.254;2023-08-24T06:30:26;7.00;;;3.58;;
44987;SDS011;35735;52.226;21.254;2023-08-24T06:35:27;10.82;;;3.42;;
44987;SDS011;35735;52.226;21.254;2023-08-24T06:40:28;10.85;;;9.10;;
44987;SDS011;35735;52.226;21.254;2023-08-24T06:45:29;10.10;;;5.95;;
44987;SDS011;35735;52.226;21.254;2023-08-24T06:50:29;11.38;;;7.55;;
44987;SDS011;35735;52.226;21.254;2023-08-24T06:55:30;10.57;;;4.95;;
44987;SDS011;35735;52.226;21.254;2023-08-24T07:00:31;10.15;;;4.62;;
44987;SDS011;35735;52.226;21.254;2023-08-24T07:05:32;24.30;;;14.82;;
44987;SDS011;35735;52.226;21.254;2023-08-24T07:10:32;6.20;;;3.25;;
44987;SDS011;35735;52.226;21.254;2023-08-24T07:15:33;26.75;;;22.20;;
44987;SDS011;35735;52.226;21.254;2023-08-24T07:20:34;21.45;;;12.93;;
44987;SDS011;35735;52.226;21.254;2023-08-24T07:25:35;11.93;;;6.50;;
44987;SDS011;35735;52.226;21.254;2023-08-24T07:30:36;14.02;;;9.73;;
44987;SDS011;35735;52.226;21.254;2023-08-24T07:35:36;10.95;;;7.28;;
44987;SDS011;35735;52.226;21.254;2023-08-24T07:40:37;8.00;;;2.83;;
44987;SDS011;35735;52.226;21.254;2023-08-24T07:45:37;5.05;;;2.15;;
44987;SDS011;35735;52.226;21.254;2023-08-24T07:50:38;6.82;;;2.72;;
44987;SDS011;35735;52.226;21.254;2023-08-24T07:55:38;5.62;;;2.45;;
44987;SDS011;35735;52.226;21.254;2023-08-24T08:00:39;10.05;;;3.25;;
44987;SDS011;35735;52.226;21.254;2023-08-24T08:05:40;7.47;;;2.22;;
44987;SDS011;35735;52.226;21.254;2023-08-24T08:10:40;8.60;;;3.15;;
44987;SDS011;35735;52.226;21.254;2023-08-24T08:15:41;5.00;;;3.08;;
44987;SDS011;35735;52.226;21.254;2023-08-24T08:20:42;8.45;;;2.87;;
44987;SDS011;35735;52.226;21.254;2023-08-24T08:25:42;4.75;;;2.70;;
44987;SDS011;35735;52.226;21.254;2023-08-24T08:30:44;5.12;;;2.12;;
44987;SDS011;35735;52.226;21.254;2023-08-24T08:35:45;4.93;;;2.03;;
44987;SDS011;35735;52.226;21.254;2023-08-24T08:40:46;2.80;;;1.77;;
44987;SDS011;35735;52.226;21.254;2023-08-24T08:45:49;5.90;;;2.20;;
44987;SDS011;35735;52.226;21.254;2023-08-24T08:50:52;4.47;;;2.15;;
44987;SDS011;35735;52.226;21.254;2023-08-24T08:55:54;4.87;;;2.08;;
44987;SDS011;35735;52.226;21.254;2023-08-24T09:00:55;5.55;;;2.72;;
44987;SDS011;35735;52.226;21.254;2023-08-24T09:05:56;7.43;;;3.30;;
44987;SDS011;35735;52.226;21.254;2023-08-24T09:11:00;11.32;;;2.62;;
44987;SDS011;35735;52.226;21.254;2023-08-24T09:16:04;6.78;;;2.47;;
44987;SDS011;35735;52.226;21.254;2023-08-24T09:21:09;4.30;;;2.30;;
44987;SDS011;35735;52.226;21.254;2023-08-24T09:26:11;7.70;;;2.17;;
44987;SDS011;35735;52.226;21.254;2023-08-24T09:31:12;6.25;;;1.90;;
44987;SDS011;35735;52.226;21.254;2023-08-24T09:36:13;4.75;;;2.20;;
44987;SDS011;35735;52.226;21.254;2023-08-24T09:41:14;7.80;;;2.00;;
44987;SDS011;35735;52.226;21.254;2023-08-24T09:46:18;5.45;;;2.15;;
44987;SDS011;35735;52.226;21.254;2023-08-24T09:51:19;8.23;;;2.20;;
44987;SDS011;35735;52.226;21.254;2023-08-24T09:56:20;3.22;;;2.08;;
44987;SDS011;35735;52.226;21.254;2023-08-24T10:01:23;10.75;;;2.30;;
44987;SDS011;35735;52.226;21.254;2023-08-24T10:06:25;5.05;;;2.45;;
44987;SDS011;35735;52.226;21.254;2023-08-24T10:11:28;6.05;;;2.20;;
44987;SDS011;35735;52.226;21.254;2023-08-24T10:16:29;4.80;;;2.40;;
44987;SDS011;35735;52.226;21.254;2023-08-24T10:21:30;9.40;;;3.25;;
44987;SDS011;35735;52.226;21.254;2023-08-24T10:26:32;5.18;;;3.17;;
44987;SDS011;35735;52.226;21.254;2023-08-24T10:31:33;3.97;;;2.30;;
44987;SDS011;35735;52.226;21.254;2023-08-24T10:36:34;9.02;;;7.65;;
44987;SDS011;35735;52.226;21.254;2023-08-24T10:47:08;3.37;;;2.22;;
44987;SDS011;35735;52.226;21.254;2023-08-24T10:52:22;3.83;;;2.92;;
44987;SDS011;35735;52.226;21.254;2023-08-24T10:57:35;7.35;;;2.85;;
44987;SDS011;35735;52.226;21.254;2023-08-24T11:02:43;8.07;;;2.33;;
44987;SDS011;35735;52.226;21.254;2023-08-24T11:07:54;5.37;;;2.95;;
44987;SDS011;35735;52.226;21.254;2023-08-24T11:18:11;9.32;;;3.53;;
44987;SDS011;35735;52.226;21.254;2023-08-24T11:23:29;7.07;;;2.70;;
44987;SDS011;35735;52.226;21.254;2023-08-24T11:28:30;4.43;;;2.75;;
44987;SDS011;35735;52.226;21.254;2023-08-24T11:33:31;5.30;;;2.00;;
44987;SDS011;35735;52.226;21.254;2023-08-24T11:38:36;6.28;;;2.40;;
44987;SDS011;35735;52.226;21.254;2023-08-24T11:43:36;4.72;;;2.45;;
44987;SDS011;35735;52.226;21.254;2023-08-24T11:48:40;2.80;;;2.05;;
44987;SDS011;35735;52.226;21.254;2023-08-24T11:53:41;7.87;;;2.55;;
44987;SDS011;35735;52.226;21.254;2023-08-24T11:58:47;8.35;;;2.72;;
44987;SDS011;35735;52.226;21.254;2023-08-24T12:03:49;3.12;;;2.35;;
44987;SDS011;35735;52.226;21.254;2023-08-24T12:08:52;4.85;;;2.22;;
44987;SDS011;35735;52.226;21.254;2023-08-24T12:13:54;4.78;;;2.10;;
44987;SDS011;35735;52.226;21.254;2023-08-24T12:18:55;3.05;;;2.05;;
44987;SDS011;35735;52.226;21.254;2023-08-24T12:23:58;5.72;;;2.60;;
44987;SDS011;35735;52.226;21.254;2023-08-24T12:29:02;5.37;;;2.03;;
44987;SDS011;35735;52.226;21.254;2023-08-24T12:34:05;4.32;;;2.12;;
44987;SDS011;35735;52.226;21.254;2023-08-24T12:39:07;3.78;;;2.10;;
44987;SDS011;35735;52.226;21.254;2023-08-24T12:44:08;6.03;;;2.22;;
44987;SDS011;35735;52.226;21.254;2023-08-24T12:49:08;7.50;;;2.00;;
44987;SDS011;35735;52.226;21.254;2023-08-24T12:54:09;3.25;;;2.40;;
44987;SDS011;35735;52.226;21.254;2023-08-24T12:59:10;3.60;;;2.20;;
44987;SDS011;35735;52.226;21.254;2023-08-24T13:04:10;10.13;;;2.40;;
44987;SDS011;35735;52.226;21.254;2023-08-24T13:09:11;6.75;;;2.45;;
44987;SDS011;35735;52.226;21.254;2023-08-24T13:14:11;6.60;;;2.10;;
44987;SDS011;35735;52.226;21.254;2023-08-24T13:19:12;6.75;;;3.40;;
44987;SDS011;35735;52.226;21.254;2023-08-24T13:24:12;7.22;;;4.70;;
44987;SDS011;35735;52.226;21.254;2023-08-24T13:29:13;7.03;;;2.60;;
44987;SDS011;35735;52.226;21.254;2023-08-24T13:34:13;10.57;;;3.10;;
44987;SDS011;35735;52.226;21.254;2023-08-24T13:39:14;5.50;;;2.30;;
44987;SDS011;35735;52.226;21.254;2023-08-24T13:44:15;7.70;;;2.65;;
44987;SDS011;35735;52.226;21.254;2023-08-24T13:49:16;6.87;;;2.53;;
44987;SDS011;35735;52.226;21.254;2023-08-24T13:54:19;6.32;;;2.40;;
44987;SDS011;35735;52.226;21.254;2023-08-24T13:59:19;3.10;;;2.50;;
44987;SDS011;35735;52.226;21.254;2023-08-24T14:04:20;5.53;;;2.58;;
44987;SDS011;35735;52.226;21.254;2023-08-24T14:09:21;4.87;;;2.80;;
44987;SDS011;35735;52.226;21.254;2023-08-24T14:14:21;4.85;;;2.37;;
44987;SDS011;35735;52.226;21.254;2023-08-24T14:19:22;2.60;;;2.40;;
44987;SDS011;35735;52.226;21.254;2023-08-24T14:24:23;3.95;;;2.40;;
44987;SDS011;35735;52.226;21.254;2023-08-24T14:29:24;7.12;;;2.90;;
44987;SDS011;35735;52.226;21.254;2023-08-24T14:34:25;6.60;;;2.53;;
44987;SDS011;35735;52.226;21.254;2023-08-24T14:39:25;5.87;;;2.37;;
44987;SDS011;35735;52.226;21.254;2023-08-24T14:44:26;5.78;;;2.28;;
44987;SDS011;35735;52.226;21.254;2023-08-24T14:49:27;3.78;;;2.50;;
44987;SDS011;35735;52.226;21.254;2023-08-24T14:54:28;8.50;;;2.95;;
44987;SDS011;35735;52.226;21.254;2023-08-24T14:59:28;10.88;;;4.60;;
44987;SDS011;35735;52.226;21.254;2023-08-24T15:04:29;9.23;;;2.83;;
44987;SDS011;35735;52.226;21.254;2023-08-24T15:09:30;5.97;;;2.67;;
44987;SDS011;35735;52.226;21.254;2023-08-24T15:14:31;13.48;;;3.10;;
44987;SDS011;35735;52.226;21.254;2023-08-24T15:19:32;7.95;;;4.32;;
44987;SDS011;35735;52.226;21.254;2023-08-24T15:24:32;2.53;;;2.33;;
44987;SDS011;35735;52.226;21.254;2023-08-24T15:29:33;8.73;;;2.75;;
44987;SDS011;35735;52.226;21.254;2023-08-24T15:34:34;6.47;;;3.30;;
44987;SDS011;35735;52.226;21.254;2023-08-24T15:39:37;9.18;;;3.22;;
44987;SDS011;35735;52.226;21.254;2023-08-24T15:44:39;8.70;;;2.92;;
44987;SDS011;35735;52.226;21.254;2023-08-24T15:49:39;7.43;;;2.87;;
44987;SDS011;35735;52.226;21.254;2023-08-24T15:54:40;9.45;;;2.78;;
44987;SDS011;35735;52.226;21.254;2023-08-24T15:59:40;4.57;;;2.70;;
44987;SDS011;35735;52.226;21.254;2023-08-24T16:04:43;7.15;;;2.55;;
44987;SDS011;35735;52.226;21.254;2023-08-24T16:09:44;4.35;;;2.22;;
44987;SDS011;35735;52.226;21.254;2023-08-24T16:14:45;11.77;;;2.53;;
44987;SDS011;35735;52.226;21.254;2023-08-24T16:19:45;12.13;;;2.50;;
44987;SDS011;35735;52.226;21.254;2023-08-24T16:24:46;10.68;;;2.92;;
44987;SDS011;35735;52.226;21.254;2023-08-24T16:29:46;7.43;;;2.70;;
44987;SDS011;35735;52.226;21.254;2023-08-24T16:34:47;4.93;;;2.20;;
44987;SDS011;35735;52.226;21.254;2023-08-24T16:39:47;7.60;;;2.60;;
44987;SDS011;35735;52.226;21.254;2023-08-24T16:44:48;12.10;;;2.50;;
44987;SDS011;35735;52.226;21.254;2023-08-24T16:49:48;10.27;;;2.22;;
44987;SDS011;35735;52.226;21.254;2023-08-24T16:54:49;7.05;;;2.47;;
44987;SDS011;35735;52.226;21.254;2023-08-24T16:59:50;4.78;;;2.00;;
44987;SDS011;35735;52.226;21.254;2023-08-24T17:04:50;4.68;;;1.75;;
44987;SDS011;35735;52.226;21.254;2023-08-24T17:09:51;7.10;;;2.42;;
44987;SDS011;35735;52.226;21.254;2023-08-24T17:14:51;5.03;;;2.20;;
44987;SDS011;35735;52.226;21.254;2023-08-24T17:19:52;6.70;;;2.10;;
44987;SDS011;35735;52.226;21.254;2023-08-24T17:24:52;21.20;;;3.00;;
44987;SDS011;35735;52.226;21.254;2023-08-24T17:29:53;32.92;;;3.30;;
44987;SDS011;35735;52.226;21.254;2023-08-24T17:34:53;17.33;;;3.00;;
44987;SDS011;35735;52.226;21.254;2023-08-24T17:39:54;26.73;;;3.40;;
44987;SDS011;35735;52.226;21.254;2023-08-24T17:44:55;13.98;;;3.28;;
44987;SDS011;35735;52.226;21.254;2023-08-24T17:49:55;27.95;;;4.43;;
44987;SDS011;35735;52.226;21.254;2023-08-24T17:54:56;52.30;;;4.97;;
44987;SDS011;35735;52.226;21.254;2023-08-24T17:59:56;22.62;;;3.95;;
44987;SDS011;35735;52.226;21.254;2023-08-24T18:04:57;10.75;;;3.20;;
44987;SDS011;35735;52.226;21.254;2023-08-24T18:09:58;49.03;;;6.05;;
44987;SDS011;35735;52.226;21.254;2023-08-24T18:14:59;38.40;;;5.45;;
44987;SDS011;35735;52.226;21.254;2023-08-24T18:19:59;27.37;;;3.60;;
44987;SDS011;35735;52.226;21.254;2023-08-24T18:25:00;20.73;;;3.53;;
44987;SDS011;35735;52.226;21.254;2023-08-24T18:30:00;13.80;;;3.22;;
44987;SDS011;35735;52.226;21.254;2023-08-24T18:35:01;27.35;;;3.53;;
44987;SDS011;35735;52.226;21.254;2023-08-24T18:40:03;30.98;;;3.95;;
44987;SDS011;35735;52.226;21.254;2023-08-24T18:45:04;28.70;;;3.55;;
44987;SDS011;35735;52.226;21.254;2023-08-24T18:50:05;27.00;;;3.80;;
44987;SDS011;35735;52.226;21.254;2023-08-24T18:55:07;23.95;;;4.10;;
44987;SDS011;35735;52.226;21.254;2023-08-24T19:00:08;24.52;;;4.20;;
44987;SDS011;35735;52.226;21.254;2023-08-24T19:05:09;14.52;;;4.12;;
44987;SDS011;35735;52.226;21.254;2023-08-24T19:10:10;18.00;;;4.05;;
44987;SDS011;35735;52.226;21.254;2023-08-24T19:15:10;55.90;;;6.70;;
44987;SDS011;35735;52.226;21.254;2023-08-24T19:20:11;31.48;;;5.18;;
44987;SDS011;35735;52.226;21.254;2023-08-24T19:25:12;38.08;;;7.55;;
44987;SDS011;35735;52.226;21.254;2023-08-24T19:30:12;31.80;;;7.53;;
44987;SDS011;35735;52.226;21.254;2023-08-24T19:35:13;29.00;;;6.15;;
44987;SDS011;35735;52.226;21.254;2023-08-24T19:40:13;25.23;;;6.90;;
44987;SDS011;35735;52.226;21.254;2023-08-24T19:45:14;24.27;;;8.45;;
44987;SDS011;35735;52.226;21.254;2023-08-24T19:50:15;26.70;;;12.48;;
44987;SDS011;35735;52.226;21.254;2023-08-24T19:55:15;26.92;;;12.25;;
44987;SDS011;35735;52.226;21.254;2023-08-24T20:00:16;37.00;;;12.90;;
44987;SDS011;35735;52.226;21.254;2023-08-24T20:05:17;44.95;;;12.45;;
44987;SDS011;35735;52.226;21.254;2023-08-24T20:10:18;23.45;;;8.68;;
44987;SDS011;35735;52.226;21.254;2023-08-24T20:15:19;18.27;;;8.60;;
44987;SDS011;35735;52.226;21.254;2023-08-24T20:20:19;31.30;;;8.43;;
44987;SDS011;35735;52.226;21.254;2023-08-24T20:25:20;17.70;;;7.35;;
44987;SDS011;35735;52.226;21.254;2023-08-24T20:30:20;11.85;;;6.70;;
44987;SDS011;35735;52.226;21.254;2023-08-24T20:35:21;15.20;;;6.50;;
44987;SDS011;35735;52.226;21.254;2023-08-24T20:40:22;17.05;;;6.75;;
44987;SDS011;35735;52.226;21.254;2023-08-24T20:45:22;15.68;;;5.50;;
44987;SDS011;35735;52.226;21.254;2023-08-24T20:50:23;9.90;;;5.70;;
44987;SDS011;35735;52.226;21.254;2023-08-24T20:55:24;12.37;;;6.05;;
44987;SDS011;35735;52.226;21.254;2023-08-24T21:00:24;9.18;;;5.28;;
44987;SDS011;35735;52.226;21.254;2023-08-24T21:05:25;17.98;;;5.90;;
44987;SDS011;35735;52.226;21.254;2023-08-24T21:10:26;18.08;;;6.00;;
44987;SDS011;35735;52.226;21.254;2023-08-24T21:15:26;31.33;;;6.57;;
44987;SDS011;35735;52.226;21.254;2023-08-24T21:20:27;19.55;;;6.32;;
44987;SDS011;35735;52.226;21.254;2023-08-24T21:25:28;21.02;;;6.00;;
44987;SDS011;35735;52.226;21.254;2023-08-24T21:30:28;20.35;;;6.07;;
44987;SDS011;35735;52.226;21.254;2023-08-24T21:35:29;15.07;;;6.20;;
44987;SDS011;35735;52.226;21.254;2023-08-24T21:40:29;15.05;;;5.62;;
44987;SDS011;35735;52.226;21.254;2023-08-24T21:45:30;9.77;;;5.47;;
44987;SDS011;35735;52.226;21.254;2023-08-24T21:50:30;9.15;;;5.90;;
44987;SDS011;35735;52.226;21.254;2023-08-24T21:55:35;12.20;;;6.55;;
44987;SDS011;35735;52.226;21.254;2023-08-24T22:00:36;14.40;;;5.18;;
44987;SDS011;35735;52.226;21.254;2023-08-24T22:05:37;11.70;;;5.82;;
44987;SDS011;35735;52.226;21.254;2023-08-24T22:10:37;12.00;;;6.30;;
44987;SDS011;35735;52.226;21.254;2023-08-24T22:15:38;8.88;;;5.87;;
44987;SDS011;35735;52.226;21.254;2023-08-24T22:20:39;8.75;;;5.80;;
44987;SDS011;35735;52.226;21.254;2023-08-24T22:25:39;11.10;;;6.10;;
44987;SDS011;35735;52.226;21.254;2023-08-24T22:30:40;11.10;;;5.85;;
44987;SDS011;35735;52.226;21.254;2023-08-24T22:35:41;8.95;;;5.65;;
44987;SDS011;35735;52.226;21.254;2023-08-24T22:40:41;17.12;;;6.70;;
44987;SDS011;35735;52.226;21.254;2023-08-24T22:45:42;10.13;;;5.93;;
44987;SDS011;35735;52.226;21.254;2023-08-24T22:50:43;10.38;;;6.03;;
44987;SDS011;35735;52.226;21.254;2023-08-24T22:55:43;13.13;;;6.43;;
44987;SDS011;35735;52.226;21.254;2023-08-24T23:00:44;12.60;;;6.62;;
44987;SDS011;35735;52.226;21.254;2023-08-24T23:05:44;14.55;;;7.32;;
44987;SDS011;35735;52.226;21.254;2023-08-24T23:10:45;13.62;;;6.93;;
44987;SDS011;35735;52.226;21.254;2023-08-24T23:15:45;17.90;;;7.40;;
44987;SDS011;35735;52.226;21.254;2023-08-24T23:20:46;19.75;;;7.80;;
44987;SDS011;35735;52.226;21.254;2023-08-24T23:25:47;20.83;;;8.13;;
44987;SDS011;35735;52.226;21.254;2023-08-24T23:30:47;20.08;;;7.60;;
44987;SDS011;35735;52.226;21.254;2023-08-24T23:35:48;17.98;;;7.32;;
44987;SDS011;35735;52.226;21.254;2023-08-24T23:40:48;20.62;;;7.07;;
44987;SDS011;35735;52.226;21.254;2023-08-24T23:45:49;13.13;;;6.95;;
44987;SDS011;35735;52.226;21.254;2023-08-24T23:50:50;14.60;;;6.80;;
44987;SDS011;35735;52.226;21.254;2023-08-24T23:55:50;12.60;;;6.90;;
